KRWL/RWL METAR and TAF weather

Enter ICAO airport designator
Station Type Date Time Source
KRWL METAR 2019/02/16 07:39 UTC NOAA

KRWL 160739Z AUTO 23019G26KT 3/4SM -SN BR BKN012 BKN018 OVC024 M02/M02 A2957 RMK AO2 PK WND 21031/0711 P0001 T10171022


Station Type Date Time Source
KRWL Decoded METAR 2019/02/16 07:39 UTC NOAA

RAWLINS MUNICIPAL AIRPORT, WY, United States (KRWL) 41-48N 107-12W
Feb 16, 2019 - 02:39 AM EST / 2019.02.16 0739 UTC
Wind: from the SW (230 degrees) at 22 MPH (19 KT) gusting to 30 MPH (26 KT):0
Visibility: 3/4 mile(s):0
Sky conditions: overcast
Weather: light snow; mist
Precipitation last hour: 0.01 inches
Temperature: 28.9 F (-1.7 C)
Windchill: 15 F (-9 C):1
Dew Point: 28.0 F (-2.2 C)
Relative Humidity: 96%
Pressure (altimeter): 29.57 in. Hg (1001 hPa)
ob: KRWL 160739Z AUTO 23019G26KT 3/4SM -SN BR BKN012 BKN018 OVC024 M02/M02 A2957 RMK AO2 PK WND 21031/0711 P0001 T10171022
cycle:

Station Type Date Time Source
KRWL TAF 2019/02/16 07:52 UTC NOAA

TAF
AMD KRWL 160650Z 1607/1706 22015KT P6SM BKN060
TEMPO 1607/1609 VRB35G49KT 1SM -SHSN OVC025
FM160900 25020G30KT 3SM -SN OVC020
FM161100 25020G30KT 2SM -SN BKN015 OVC040
FM161500 27015G25KT P6SM VCSH BKN050
FM170100 26010KT P6SM SCT050 BKN100


Example: see airport list